Time;durP1;ratioP1;P1;durP2;ratioP2;P2;SDS_P1;SDS_P2;PMS_P1;PMS_P2;Temp;Humidity;BMP_temperature;BMP_pressure;BME280_temperature;BME280_humidity;BME280_pressure;Samples;Min_cycle;Max_cycle;Signal;HPM_P1;HPM_P2
2022/07/18 00:01:55;;;;;;;9.80;4.15;;;17.00;99.90;;;;;;4978614;28;20057;-88
2022/07/18 00:04:20;;;;;;;10.93;4.50;;;17.00;99.90;;;;;;4960236;28;20085;-88
2022/07/18 00:06:46;;;;;;;8.70;4.20;;;17.30;99.90;;;;;;4942698;28;20045;-88
2022/07/18 00:09:12;;;;;;;9.85;4.30;;;16.90;99.90;;;;;;4945062;28;20038;-87
2022/07/18 00:11:37;;;;;;;13.45;4.32;;;16.90;99.90;;;;;;4992693;28;20137;-88
2022/07/18 00:14:03;;;;;;;9.85;4.28;;;17.00;99.90;;;;;;4991526;28;20047;-87
2022/07/18 00:16:29;;;;;;;10.40;4.43;;;17.00;99.90;;;;;;4964162;28;20033;-88
2022/07/18 00:18:58;;;;;;;9.55;4.15;;;16.90;99.90;;;;;;4963516;28;20510;-87
2022/07/18 00:21:24;;;;;;;10.98;4.70;;;16.90;99.90;;;;;;4977336;28;20139;-88
2022/07/18 00:23:50;;;;;;;9.05;4.10;;;17.00;99.90;;;;;;4985632;28;20183;-88
2022/07/18 00:26:16;;;;;;;8.82;3.90;;;16.90;99.90;;;;;;4977677;28;20152;-88
2022/07/18 00:28:41;;;;;;;10.93;4.70;;;16.90;99.90;;;;;;4984116;28;20197;-88
2022/07/18 00:31:07;;;;;;;9.57;4.72;;;16.90;99.90;;;;;;4992216;28;20052;-88
2022/07/18 00:33:33;;;;;;;8.30;4.05;;;16.80;99.90;;;;;;4980655;28;20080;-88
2022/07/18 00:35:59;;;;;;;9.05;4.05;;;16.80;99.90;;;;;;4990237;28;20053;-87
2022/07/18 00:38:24;;;;;;;9.90;4.57;;;16.70;99.90;;;;;;4977908;28;20636;-87
2022/07/18 00:40:52;;;;;;;12.25;4.50;;;16.70;99.90;;;;;;4960172;28;20038;-88
2022/07/18 00:43:17;;;;;;;8.88;3.88;;;16.60;99.90;;;;;;4991832;28;20037;-88
2022/07/18 00:45:48;;;;;;;9.30;4.32;;;16.60;99.90;;;;;;4961424;28;20045;-88
2022/07/18 00:48:14;;;;;;;9.07;3.85;;;16.60;99.90;;;;;;4989811;28;20042;-88
2022/07/18 00:50:42;;;;;;;8.60;3.72;;;16.50;99.90;;;;;;4994739;28;20482;-88
2022/07/18 00:53:10;;;;;;;8.75;3.80;;;16.50;99.90;;;;;;4984965;28;20041;-88
2022/07/18 00:55:41;;;;;;;9.63;3.95;;;16.50;99.90;;;;;;5002534;28;20481;-88
2022/07/18 00:58:09;;;;;;;8.52;3.97;;;16.50;99.90;;;;;;4996018;28;20083;-88
2022/07/18 01:03:19;;;;;;;9.57;3.97;;;16.50;99.90;;;;;;4993949;28;20034;-88
2022/07/18 01:05:45;;;;;;;9.98;3.95;;;16.40;99.90;;;;;;4990852;28;20616;-88
2022/07/18 01:08:11;;;;;;;10.07;4.07;;;16.50;99.90;;;;;;4958765;28;20096;-88
2022/07/18 01:10:37;;;;;;;9.07;3.90;;;16.40;99.90;;;;;;4969127;28;20099;-88
2022/07/18 01:13:02;;;;;;;9.57;3.85;;;16.40;99.90;;;;;;4980795;28;20125;-88
2022/07/18 01:15:28;;;;;;;10.15;4.30;;;16.40;99.90;;;;;;4965949;28;20041;-88
2022/07/18 01:17:54;;;;;;;9.10;4.18;;;16.40;99.90;;;;;;4982309;28;20049;-88
2022/07/18 01:20:19;;;;;;;8.65;4.03;;;16.40;99.90;;;;;;5001977;28;20042;-87
2022/07/18 01:22:45;;;;;;;10.52;4.90;;;16.40;99.90;;;;;;4986064;28;20034;-89
2022/07/18 01:25:12;;;;;;;11.85;4.63;;;16.40;99.90;;;;;;4966937;28;20018;-88
2022/07/18 01:27:38;;;;;;;9.82;4.78;;;16.40;99.90;;;;;;5006589;28;20046;-89
2022/07/18 01:30:05;;;;;;;11.07;4.72;;;16.40;99.90;;;;;;4976108;28;20077;-88
2022/07/18 01:32:31;;;;;;;9.75;4.45;;;16.40;99.90;;;;;;4962605;28;20033;-88
2022/07/18 01:34:57;;;;;;;9.75;4.60;;;16.50;99.90;;;;;;4976426;28;20543;-88
2022/07/18 01:37:23;;;;;;;11.00;5.20;;;16.30;99.90;;;;;;4982033;28;20111;-88
2022/07/18 01:39:49;;;;;;;10.25;4.40;;;16.40;99.90;;;;;;4987793;28;20479;-88
2022/07/18 01:42:15;;;;;;;9.80;4.47;;;16.30;99.90;;;;;;4987317;28;20103;-88
2022/07/18 01:44:41;;;;;;;9.90;4.13;;;16.30;99.90;;;;;;4949792;28;20131;-88
2022/07/18 01:47:09;;;;;;;9.60;4.85;;;16.30;99.90;;;;;;5011297;28;20474;-88
2022/07/18 01:49:35;;;;;;;11.23;4.75;;;17.10;99.90;;;;;;4987476;28;20050;-88
2022/07/18 01:52:02;;;;;;;10.65;4.78;;;16.20;99.90;;;;;;5010278;28;20196;-88
2022/07/18 01:54:31;;;;;;;10.88;5.18;;;16.20;99.90;;;;;;4979821;28;20038;-88
2022/07/18 01:57:02;;;;;;;9.77;5.03;;;16.20;99.90;;;;;;5012047;28;20049;-88
2022/07/18 01:59:28;;;;;;;9.90;5.20;;;16.20;99.90;;;;;;4987644;28;20040;-88
2022/07/18 02:01:53;;;;;;;9.55;4.72;;;16.20;99.90;;;;;;4978005;28;20383;-88
2022/07/18 02:04:19;;;;;;;11.95;5.40;;;16.10;99.90;;;;;;4962965;28;20042;-88
2022/07/18 02:06:45;;;;;;;10.07;5.10;;;16.10;99.90;;;;;;5013838;28;20052;-89
2022/07/18 02:09:11;;;;;;;11.32;5.65;;;16.10;99.90;;;;;;4966596;28;20829;-88
2022/07/18 02:11:37;;;;;;;10.10;5.38;;;16.00;99.90;;;;;;4972938;28;20286;-89
2022/07/18 02:14:04;;;;;;;11.25;5.30;;;16.00;99.90;;;;;;4964908;28;20176;-88
2022/07/18 02:16:31;;;;;;;10.35;5.28;;;15.90;99.90;;;;;;4976812;28;20101;-87
2022/07/18 02:18:57;;;;;;;10.38;5.32;;;15.90;99.90;;;;;;4961459;28;20031;-87
2022/07/18 02:21:26;;;;;;;12.15;5.40;;;15.90;99.90;;;;;;4973964;28;20468;-88
2022/07/18 02:23:51;;;;;;;10.60;5.20;;;15.80;99.90;;;;;;4972553;28;20518;-87
2022/07/18 02:26:18;;;;;;;12.95;5.75;;;15.90;99.90;;;;;;4960957;28;20125;-88
2022/07/18 02:28:43;;;;;;;11.52;5.50;;;15.90;99.90;;;;;;4970866;28;20064;-88
2022/07/18 02:31:09;;;;;;;10.38;4.97;;;15.90;99.90;;;;;;4975290;28;20507;-88
2022/07/18 02:33:35;;;;;;;10.98;5.50;;;15.80;99.90;;;;;;4970880;28;20105;-88
2022/07/18 02:36:01;;;;;;;11.98;5.32;;;15.90;99.90;;;;;;4970825;28;20163;-88
2022/07/18 02:38:26;;;;;;;11.15;5.60;;;15.90;99.90;;;;;;4971618;28;20042;-89
2022/07/18 02:40:52;;;;;;;12.20;5.82;;;15.90;99.90;;;;;;4987306;28;20039;-88
2022/07/18 02:43:18;;;;;;;11.15;5.30;;;15.90;99.90;;;;;;4955278;28;20041;-88
2022/07/18 02:45:43;;;;;;;10.75;5.30;;;15.90;99.90;;;;;;4955073;28;20042;-89
2022/07/18 02:48:09;;;;;;;11.18;5.00;;;15.90;99.90;;;;;;4956653;28;20043;-88
2022/07/18 02:50:35;;;;;;;10.63;5.75;;;16.00;99.90;;;;;;4975624;28;20112;-88
2022/07/18 02:53:01;;;;;;;10.70;5.40;;;16.00;99.90;;;;;;4965685;28;20089;-88
2022/07/18 02:55:26;;;;;;;12.38;5.65;;;16.00;99.90;;;;;;4956038;28;20419;-88
2022/07/18 02:57:52;;;;;;;12.85;5.50;;;16.00;99.90;;;;;;4955814;28;20035;-88
2022/07/18 03:00:18;;;;;;;11.88;5.53;;;16.00;99.90;;;;;;4955510;28;20075;-88
2022/07/18 03:02:45;;;;;;;14.75;5.88;;;16.00;99.90;;;;;;4971675;28;20051;-88
2022/07/18 03:05:12;;;;;;;11.13;4.97;;;15.90;99.90;;;;;;4970338;28;20171;-88
2022/07/18 03:07:38;;;;;;;11.13;4.88;;;15.90;99.90;;;;;;4971812;28;20414;-88
2022/07/18 03:10:05;;;;;;;10.55;5.50;;;15.90;99.90;;;;;;4971021;28;20152;-88
2022/07/18 03:12:31;;;;;;;10.77;5.53;;;15.90;99.90;;;;;;4971525;28;20503;-88
2022/07/18 03:14:57;;;;;;;10.68;5.18;;;15.80;99.90;;;;;;4973757;28;20042;-88
2022/07/18 03:17:22;;;;;;;11.57;5.63;;;15.80;99.90;;;;;;4974631;28;20034;-88
2022/07/18 03:19:51;;;;;;;11.25;5.28;;;15.90;99.90;;;;;;4981195;28;20080;-89
2022/07/18 03:22:16;;;;;;;12.52;5.55;;;15.80;99.90;;;;;;4960691;28;20518;-89
2022/07/18 03:24:42;;;;;;;10.13;5.13;;;15.80;99.90;;;;;;4954999;28;20042;-88
2022/07/18 03:27:08;;;;;;;11.65;5.95;;;15.80;99.90;;;;;;4987893;28;20054;-91
2022/07/18 03:29:33;;;;;;;13.32;5.63;;;15.80;99.90;;;;;;4960375;28;20039;-88
2022/07/18 03:31:59;;;;;;;11.50;5.85;;;15.90;99.90;;;;;;4945535;28;20045;-89
2022/07/18 03:34:25;;;;;;;11.90;5.63;;;16.00;99.90;;;;;;4958313;28;20473;-88
2022/07/18 03:36:50;;;;;;;11.82;6.10;;;16.00;99.90;;;;;;4954787;28;20241;-89
2022/07/18 03:39:16;;;;;;;11.30;5.55;;;16.10;99.90;;;;;;4955222;28;20042;-88
2022/07/18 03:41:42;;;;;;;11.75;5.45;;;16.10;99.90;;;;;;4981455;28;20038;-89
2022/07/18 03:44:08;;;;;;;10.95;5.47;;;16.10;99.90;;;;;;4989518;28;20042;-89
2022/07/18 03:46:34;;;;;;;11.30;5.50;;;16.10;99.90;;;;;;4957327;28;20053;-88
2022/07/18 03:49:00;;;;;;;11.57;5.03;;;16.10;99.90;;;;;;4973688;28;20128;-88
2022/07/18 03:51:26;;;;;;;11.18;5.18;;;16.20;99.90;;;;;;4962698;28;20767;-88
2022/07/18 03:53:52;;;;;;;10.63;5.22;;;16.20;99.90;;;;;;4975657;28;20045;-88
2022/07/18 03:56:18;;;;;;;10.70;5.22;;;16.20;99.90;;;;;;4974230;28;20057;-88
2022/07/18 03:58:43;;;;;;;10.90;5.03;;;16.20;99.90;;;;;;4959438;28;20474;-88
2022/07/18 04:01:10;;;;;;;12.57;5.35;;;16.20;99.90;;;;;;4956738;28;20042;-88
2022/07/18 04:03:35;;;;;;;12.30;5.50;;;16.30;99.90;;;;;;4988834;28;20065;-90
2022/07/18 04:06:01;;;;;;;13.95;5.38;;;16.40;99.90;;;;;;4973712;28;20491;-88
2022/07/18 04:08:27;;;;;;;12.35;5.60;;;16.30;99.90;;;;;;4974202;28;20112;-89
2022/07/18 04:10:53;;;;;;;12.65;5.95;;;16.30;99.90;;;;;;4951767;28;20428;-90
2022/07/18 04:13:19;;;;;;;11.00;5.50;;;16.40;99.90;;;;;;4972586;28;20050;-89
2022/07/18 04:15:44;;;;;;;11.23;5.53;;;16.40;99.90;;;;;;4982179;28;20045;-89
2022/07/18 04:18:10;;;;;;;11.23;5.40;;;16.40;99.90;;;;;;4975346;28;20081;-90
2022/07/18 04:20:38;;;;;;;11.57;5.43;;;16.40;99.90;;;;;;4974099;28;20137;-89
2022/07/18 04:23:07;;;;;;;11.25;5.68;;;16.40;99.90;;;;;;4988471;28;20052;-88
2022/07/18 04:25:39;;;;;;;10.63;5.60;;;16.40;99.90;;;;;;4989188;28;20046;-88
2022/07/18 04:28:05;;;;;;;12.30;5.68;;;16.50;99.90;;;;;;4976138;28;20498;-90
2022/07/18 04:30:32;;;;;;;11.25;5.57;;;16.50;99.90;;;;;;4972708;28;20037;-89
2022/07/18 04:33:02;;;;;;;10.75;5.28;;;16.50;99.90;;;;;;4988455;28;20105;-89
2022/07/18 04:35:28;;;;;;;11.18;4.82;;;16.60;99.90;;;;;;5005084;28;20081;-88
2022/07/18 04:37:53;;;;;;;11.38;5.57;;;16.60;99.90;;;;;;4993432;28;20074;-88
2022/07/18 04:40:22;;;;;;;11.05;5.55;;;16.60;99.90;;;;;;4981336;28;20037;-88
2022/07/18 04:42:48;;;;;;;13.82;5.50;;;16.70;99.90;;;;;;4987229;28;20122;-89
2022/07/18 04:45:15;;;;;;;13.30;5.50;;;16.70;99.90;;;;;;4989191;28;20050;-89
2022/07/18 04:47:41;;;;;;;10.98;4.97;;;16.70;99.90;;;;;;4990906;28;20224;-90
2022/07/18 04:50:07;;;;;;;12.32;5.30;;;16.80;99.90;;;;;;4968376;28;20034;-89
2022/07/18 04:52:44;;;;;;;11.93;5.35;;;16.80;99.90;;;;;;4969078;28;20031;-90
2022/07/18 04:55:12;;;;;;;10.93;5.57;;;16.80;99.90;;;;;;4986767;28;20039;-91
2022/07/18 04:57:38;;;;;;;15.13;4.65;;;16.80;99.90;;;;;;4968371;28;20521;-90
2022/07/18 05:00:10;;;;;;;10.07;4.72;;;16.90;99.90;;;;;;4961143;28;20311;-89
2022/07/18 05:02:39;;;;;;;10.25;4.95;;;16.90;99.90;;;;;;4977178;28;20108;-91
2022/07/18 05:05:16;;;;;;;;;;;;;;;;;;;;;
2022/07/18 05:20:59;;;;;;;;;;;;;;;;;;;;;
2022/07/18 05:24:23;;;;;;;;;;;;;;;;;;;;;
2022/07/18 05:31:31;;;;;;;;;;;;;;;;;;;;;
2022/07/18 05:45:07;;;;;;;10.40;4.00;;;17.50;99.90;;;;;;4865967;29;20534;-89
2022/07/18 05:47:41;;;;;;;9.52;3.97;;;17.50;99.90;;;;;;4959006;28;20687;-90
2022/07/18 05:58:23;;;;;;;;;;;;;;;;;;;;;
2022/07/18 06:13:08;;;;;;;;;;;;;;;;;;;;;
2022/07/18 06:23:59;;;;;;;9.02;3.10;;;18.60;99.90;;;;;;4772470;29;20059;-87
2022/07/18 06:26:58;;;;;;;8.95;3.40;;;;;;;;;;4742687;30;20160;-90
2022/07/18 06:32:58;;;;;;;8.85;3.10;;;18.90;99.90;;;;;;4768058;29;20130;-88
2022/07/18 06:36:27;;;;;;;;;;;;;;;;;;;;;
2022/07/18 06:40:29;;;;;;;;;;;;;;;;;;;;;
2022/07/18 06:44:06;;;;;;;;;;;;;;;;;;;;;
2022/07/18 06:51:22;;;;;;;7.95;2.92;;;19.90;99.90;;;;;;4833769;29;20053;-91
2022/07/18 06:53:47;;;;;;;8.73;2.83;;;19.90;99.90;;;;;;4811079;29;20053;-88
2022/07/18 06:56:13;;;;;;;9.25;2.90;;;20.00;99.90;;;;;;4904636;29;20549;-89
2022/07/18 06:58:39;;;;;;;9.18;2.90;;;20.10;99.90;;;;;;4928281;28;20065;-87
2022/07/18 07:01:06;;;;;;;8.43;3.00;;;20.10;99.90;;;;;;4933912;28;20044;-88
2022/07/18 07:03:32;;;;;;;8.07;2.80;;;20.10;99.90;;;;;;4973817;28;20129;-88
2022/07/18 07:06:01;;;;;;;9.40;2.63;;;20.20;99.90;;;;;;4973078;28;20042;-88
2022/07/18 07:08:27;;;;;;;8.65;2.70;;;20.30;99.90;;;;;;4952082;28;20065;-90
2022/07/18 07:10:53;;;;;;;7.63;2.72;;;20.40;99.90;;;;;;4969947;28;20406;-86
2022/07/18 07:13:18;;;;;;;6.70;2.35;;;20.70;99.90;;;;;;4959748;28;20108;-89
2022/07/18 07:15:44;;;;;;;9.02;2.70;;;20.80;99.90;;;;;;4952886;28;20430;-87
2022/07/18 07:18:10;;;;;;;8.65;2.55;;;20.90;99.90;;;;;;4972984;28;20113;-89
2022/07/18 07:20:37;;;;;;;7.20;2.17;;;21.00;99.90;;;;;;4969635;28;20553;-88
2022/07/18 07:23:07;;;;;;;8.27;2.45;;;21.10;99.90;;;;;;4995474;28;20387;-88
2022/07/18 07:25:39;;;;;;;8.32;2.70;;;21.10;99.90;;;;;;4966263;28;20121;-92
2022/07/18 07:28:11;;;;;;;6.80;2.35;;;21.20;99.90;;;;;;4983283;28;20137;-89
2022/07/18 07:30:37;;;;;;;7.80;2.30;;;21.20;99.90;;;;;;4969424;28;20132;-89
2022/07/18 07:33:04;;;;;;;8.70;2.40;;;21.40;99.90;;;;;;4987601;28;20116;-87
2022/07/18 07:35:30;;;;;;;8.75;2.35;;;21.50;99.90;;;;;;4988159;28;20027;-90
2022/07/18 07:37:58;;;;;;;6.07;2.20;;;21.70;99.90;;;;;;5007617;28;20041;-90
2022/07/18 07:40:35;;;;;;;8.02;2.40;;;21.80;99.90;;;;;;4981540;28;20049;-88
2022/07/18 07:43:20;;;;;;;7.53;2.30;;;21.90;99.90;;;;;;5004790;28;20121;-87
2022/07/18 07:45:55;;;;;;;7.25;2.33;;;22.00;99.90;;;;;;4980002;28;20099;-88
2022/07/18 07:48:24;;;;;;;6.82;2.20;;;22.10;99.90;;;;;;4984519;28;20050;-90
2022/07/18 07:51:03;;;;;;;7.57;2.20;;;;;;;;;;4983000;28;20037;-89
2022/07/18 07:53:38;;;;;;;7.72;2.50;;;22.30;99.90;;;;;;4983896;28;20155;-90
2022/07/18 07:56:26;;;;;;;8.63;2.22;;;22.50;99.90;;;;;;4981190;28;20124;-89
2022/07/18 07:58:55;;;;;;;9.38;2.50;;;21.60;99.90;;;;;;4988326;28;20112;-88
2022/07/18 08:02:11;;;;;;;8.43;2.42;;;22.50;99.90;;;;;;4971163;28;20197;-88
2022/07/18 08:04:40;;;;;;;6.55;2.20;;;22.50;99.90;;;;;;4984243;28;20056;-89
2022/07/18 08:07:12;;;;;;;6.75;1.98;;;22.70;99.90;;;;;;4977905;28;20053;-90
2022/07/18 08:09:53;;;;;;;;;;;;;;;;;;;;;
2022/07/18 08:13:13;;;;;;;7.22;1.88;;;22.80;99.90;;;;;;4973903;28;20054;-90
2022/07/18 08:16:12;;;;;;;;;;;;;;;;;;;;;
2022/07/18 08:19:17;;;;;;;;;;;;;;;;;;;;;
2022/07/18 08:22:23;;;;;;;6.22;1.90;;;23.00;99.90;;;;;;4991321;28;20615;-86
2022/07/18 08:31:48;;;;;;;9.18;2.10;;;23.40;99.90;;;;;;4961611;28;20047;-88
2022/07/18 08:34:22;;;;;;;8.43;1.90;;;23.60;99.90;;;;;;4969347;28;20031;-89
2022/07/18 08:41:00;;;;;;;;;;;;;;;;;;;;;
2022/07/18 09:09:36;;;;;;;;;;;;;;;;;;;;;
2022/07/18 09:38:13;;;;;;;;;;;;;;;;;;;;;
2022/07/18 09:42:01;;;;;;;;;;;;;;;;;;;;;
2022/07/18 09:45:48;;;;;;;;;;;;;;;;;;;;;
2022/07/18 10:00:14;;;;;;;;;;;;;;;;;;;;;
2022/07/18 10:10:29;;;;;;;;;;;;;;;;;;;;;
2022/07/18 10:21:19;;;;;;;8.27;2.10;;;26.00;99.90;;;;;;4913263;29;20145;-87
2022/07/18 10:23:57;;;;;;;7.38;1.90;;;26.40;99.90;;;;;;4909309;28;20045;-89
2022/07/18 10:26:32;;;;;;;6.80;1.70;;;26.20;99.90;;;;;;4965790;28;20034;-89
2022/07/18 10:29:26;;;;;;;7.25;2.00;;;26.30;99.90;;;;;;5024471;28;20164;-89
2022/07/18 10:32:12;;;;;;;5.85;1.73;;;26.30;99.90;;;;;;4958852;28;20078;-89
2022/07/18 10:34:49;;;;;;;10.85;2.03;;;26.50;99.90;;;;;;4971320;28;20505;-90
2022/07/18 10:37:24;;;;;;;8.50;2.00;;;26.80;99.90;;;;;;4963011;28;20050;-89
2022/07/18 10:39:50;;;;;;;7.25;2.05;;;26.70;99.90;;;;;;4996395;28;20462;-90
2022/07/18 10:42:27;;;;;;;9.07;2.10;;;26.80;99.90;;;;;;4950400;28;20046;-91
2022/07/18 10:44:53;;;;;;;7.03;2.03;;;26.90;99.90;;;;;;4977537;28;20046;-88
2022/07/18 10:49:56;;;;;;;7.93;2.40;;;27.00;99.90;;;;;;4976445;28;20510;-89
2022/07/18 10:52:33;;;;;;;8.98;2.60;;;27.10;99.90;;;;;;5010952;28;20498;-89
2022/07/18 10:55:18;;;;;;;6.63;2.10;;;27.20;99.90;;;;;;5008370;28;20038;-88
2022/07/18 10:57:50;;;;;;;7.28;2.00;;;27.30;99.90;;;;;;4978220;28;20042;-90
2022/07/18 11:00:23;;;;;;;6.55;1.90;;;27.50;99.90;;;;;;4975058;28;20651;-90
2022/07/18 11:03:08;;;;;;;7.55;2.33;;;27.60;99.90;;;;;;4972400;28;20042;-90
2022/07/18 11:05:36;;;;;;;9.05;2.72;;;27.70;99.90;;;;;;5023082;28;20045;-91
2022/07/18 11:08:01;;;;;;;7.45;2.30;;;27.80;99.90;;;;;;4961290;28;20048;-91
2022/07/18 11:10:54;;;;;;;7.75;2.45;;;27.90;99.90;;;;;;4989621;28;20038;-90
2022/07/18 11:13:27;;;;;;;6.85;2.35;;;27.90;99.90;;;;;;5033001;28;20066;-90
2022/07/18 11:15:58;;;;;;;6.50;2.30;;;28.00;99.50;;;;;;4994410;28;20176;-91
2022/07/18 11:18:25;;;;;;;9.18;2.47;;;28.00;99.10;;;;;;4987469;28;20042;-90
2022/07/18 11:20:52;;;;;;;8.70;2.35;;;28.00;98.50;;;;;;4985922;28;20058;-91
2022/07/18 11:23:26;;;;;;;8.05;2.45;;;28.10;98.80;;;;;;4996137;28;20072;-89
2022/07/18 11:25:58;;;;;;;7.85;2.50;;;28.00;98.80;;;;;;5009331;28;20045;-90
2022/07/18 11:28:25;;;;;;;7.68;2.60;;;28.20;97.50;;;;;;4982550;28;20069;-89
2022/07/18 11:31:02;;;;;;;8.50;2.63;;;28.30;97.60;;;;;;4978177;28;20092;-90
2022/07/18 11:33:30;;;;;;;6.93;2.65;;;28.50;96.90;;;;;;4980390;28;20037;-91
2022/07/18 11:36:08;;;;;;;8.85;2.50;;;28.70;97.30;;;;;;4983824;28;21892;-89
2022/07/18 11:38:39;;;;;;;8.88;2.85;;;28.80;96.10;;;;;;4961850;28;20034;-90
2022/07/18 11:41:05;;;;;;;8.07;2.80;;;28.80;95.30;;;;;;4978654;28;20034;-91
2022/07/18 11:43:31;;;;;;;7.47;2.35;;;28.70;94.90;;;;;;4973039;28;20045;-92
2022/07/18 11:46:04;;;;;;;7.80;2.55;;;28.60;94.80;;;;;;4972296;28;20475;-90
2022/07/18 11:48:31;;;;;;;7.75;2.60;;;28.50;94.30;;;;;;4989696;28;20481;-89
2022/07/18 11:50:57;;;;;;;8.52;2.58;;;28.60;93.30;;;;;;4972666;28;20071;-90
2022/07/18 11:53:25;;;;;;;8.38;2.65;;;28.80;93.20;;;;;;4988781;28;20113;-90
2022/07/18 11:55:53;;;;;;;10.73;3.22;;;29.00;93.90;;;;;;4970741;28;20038;-89
2022/07/18 11:58:19;;;;;;;7.80;2.35;;;29.10;93.80;;;;;;4965184;28;20387;-89
2022/07/18 12:00:46;;;;;;;9.05;2.90;;;29.30;93.40;;;;;;5012016;28;20048;-89
2022/07/18 12:03:15;;;;;;;8.88;2.95;;;29.30;93.20;;;;;;4993805;28;20121;-88
2022/07/18 12:05:49;;;;;;;8.02;2.72;;;29.30;92.90;;;;;;4993338;28;20122;-89
2022/07/18 12:08:32;;;;;;;8.13;2.53;;;29.40;93.20;;;;;;4996679;28;20550;-89
2022/07/18 12:11:19;;;;;;;8.20;2.97;;;29.40;92.60;;;;;;5000297;28;20462;-90
2022/07/18 12:13:56;;;;;;;6.60;2.53;;;29.50;92.50;;;;;;5004165;28;20064;-91
2022/07/18 12:16:50;;;;;;;8.23;2.90;;;29.50;91.40;;;;;;4994274;28;20042;-92
2022/07/18 12:23:15;;;;;;;8.43;2.80;;;29.50;91.80;;;;;;4988631;28;20053;-91
2022/07/18 12:26:04;;;;;;;8.55;2.90;;;29.60;92.30;;;;;;5001106;28;20046;-90
2022/07/18 12:44:32;;;;;;;;;;;;;;;;;;;;;
2022/07/18 12:47:38;;;;;;;8.13;2.63;;;30.20;90.90;;;;;;4920784;28;20944;-90
2022/07/18 12:57:52;;;;;;;9.43;3.00;;;30.30;89.00;;;;;;4941988;28;20433;-90
2022/07/18 13:12:56;;;;;;;;;;;;;;;;;;;;;
2022/07/18 13:31:08;;;;;;;;;;;;;;;;;;;;;
2022/07/18 13:48:51;;;;;;;;;;;;;;;;;;;;;
2022/07/18 13:58:43;;;;;;;8.20;2.83;;;30.70;78.30;;;;;;4680391;30;20052;-88
2022/07/18 14:09:13;;;;;;;;;;;;;;;;;;;;;
2022/07/18 14:37:35;;;;;;;8.68;3.17;;;29.30;82.70;;;;;;5101199;27;20687;-90
2022/07/18 14:40:01;;;;;;;10.48;3.00;;;29.30;81.50;;;;;;5068251;28;20043;-86
2022/07/18 14:42:27;;;;;;;7.57;3.10;;;29.60;83.00;;;;;;5084410;28;20036;-88
2022/07/18 14:44:53;;;;;;;8.52;3.15;;;30.30;82.30;;;;;;5070382;28;20055;-87
2022/07/18 14:47:20;;;;;;;7.10;2.80;;;30.30;82.70;;;;;;5086528;28;20410;-88
2022/07/18 14:49:46;;;;;;;8.23;2.83;;;30.50;82.80;;;;;;5052353;28;20039;-88
2022/07/18 14:52:12;;;;;;;9.23;3.08;;;30.80;82.60;;;;;;5053578;28;20032;-89
2022/07/18 14:54:37;;;;;;;7.07;2.80;;;30.80;79.70;;;;;;5068477;28;20070;-88
2022/07/18 14:57:04;;;;;;;7.60;2.80;;;30.90;79.90;;;;;;5070597;28;20055;-88
2022/07/18 14:59:30;;;;;;;7.90;2.80;;;31.00;80.10;;;;;;5070594;28;20042;-88
2022/07/18 15:01:58;;;;;;;9.48;3.05;;;31.20;81.10;;;;;;5067801;28;20031;-89
2022/07/18 15:04:25;;;;;;;7.95;3.08;;;31.20;80.60;;;;;;5069249;28;20109;-89
2022/07/18 15:06:51;;;;;;;7.68;2.95;;;31.20;80.00;;;;;;5071845;28;20436;-88
2022/07/18 15:09:17;;;;;;;8.20;3.05;;;31.10;78.60;;;;;;5068295;28;20056;-88
2022/07/18 15:11:59;;;;;;;8.32;3.03;;;31.10;77.90;;;;;;5050364;28;20052;-88
2022/07/18 15:14:25;;;;;;;7.88;3.10;;;31.10;74.70;;;;;;5065798;28;20044;-89
2022/07/18 15:16:50;;;;;;;7.43;3.00;;;30.80;76.50;;;;;;5033723;28;20097;-87
2022/07/18 15:19:16;;;;;;;7.70;3.08;;;30.80;77.50;;;;;;5048554;28;20043;-88
2022/07/18 15:21:42;;;;;;;7.65;3.03;;;30.70;77.30;;;;;;5046904;28;20360;-90
2022/07/18 15:24:08;;;;;;;7.53;2.95;;;31.40;76.90;;;;;;5032761;28;20041;-88
2022/07/18 15:26:34;;;;;;;7.78;2.90;;;30.70;76.70;;;;;;5025277;28;20047;-87
2022/07/18 15:29:00;;;;;;;7.55;2.88;;;31.00;78.10;;;;;;5048652;28;20040;-88
2022/07/18 15:31:26;;;;;;;7.82;3.13;;;31.30;77.90;;;;;;5032029;28;20086;-88
2022/07/18 15:33:52;;;;;;;7.55;3.00;;;31.30;76.90;;;;;;5051770;28;20087;-88
2022/07/18 15:36:18;;;;;;;8.88;3.10;;;31.30;78.40;;;;;;5036324;28;20052;-87
2022/07/18 15:38:43;;;;;;;7.15;2.63;;;30.90;77.80;;;;;;5033377;28;20036;-87
2022/07/18 15:41:11;;;;;;;7.97;2.78;;;30.80;77.10;;;;;;5050732;28;20258;-88
2022/07/18 15:43:39;;;;;;;8.02;2.80;;;30.80;76.40;;;;;;5060588;28;20522;-88
2022/07/18 15:46:07;;;;;;;7.75;2.65;;;30.80;76.40;;;;;;5055523;28;20113;-89
2022/07/18 15:48:33;;;;;;;8.43;3.03;;;30.80;76.00;;;;;;5035665;28;20535;-88
2022/07/18 15:50:59;;;;;;;7.10;2.97;;;30.80;76.00;;;;;;5015318;28;20067;-88
2022/07/18 15:53:24;;;;;;;7.80;3.10;;;30.90;76.50;;;;;;5070178;28;20068;-89
2022/07/18 15:55:50;;;;;;;9.15;3.00;;;31.10;76.80;;;;;;5034410;28;20507;-87
2022/07/18 15:58:16;;;;;;;7.50;3.03;;;31.30;76.50;;;;;;5050680;28;20591;-83
2022/07/18 16:00:42;;;;;;;8.07;2.60;;;31.50;74.70;;;;;;5037501;28;20044;-84
2022/07/18 16:03:07;;;;;;;8.02;2.80;;;31.70;75.60;;;;;;5040289;28;20056;-82
2022/07/18 16:05:33;;;;;;;7.80;2.88;;;32.10;75.00;;;;;;5005892;28;20067;-84
2022/07/18 16:08:02;;;;;;;7.50;3.10;;;32.10;74.90;;;;;;5026104;28;20063;-84
2022/07/18 16:10:29;;;;;;;7.28;3.00;;;32.20;74.00;;;;;;5022865;28;20630;-85
2022/07/18 16:12:55;;;;;;;7.90;3.15;;;32.30;72.60;;;;;;5035423;28;20507;-85
2022/07/18 16:15:21;;;;;;;7.93;3.00;;;32.60;72.00;;;;;;5050276;28;20056;-84
2022/07/18 16:17:46;;;;;;;7.30;2.80;;;32.90;71.00;;;;;;5037539;28;20072;-83
2022/07/18 16:20:14;;;;;;;7.65;3.17;;;33.50;70.60;;;;;;5032189;28;20116;-83
2022/07/18 16:22:41;;;;;;;10.65;3.30;;;33.40;70.60;;;;;;5024886;28;20044;-83
2022/07/18 16:25:08;;;;;;;7.20;3.00;;;33.90;70.60;;;;;;5033946;28;20607;-84
2022/07/18 16:27:33;;;;;;;8.80;2.90;;;34.20;69.70;;;;;;5037895;28;20063;-86
2022/07/18 16:30:03;;;;;;;9.07;3.15;;;33.70;69.60;;;;;;5049511;28;20469;-84
2022/07/18 16:32:29;;;;;;;7.93;2.90;;;33.90;69.50;;;;;;5031002;28;20472;-83
2022/07/18 16:34:54;;;;;;;8.23;3.00;;;33.70;69.10;;;;;;5019281;28;20029;-82
2022/07/18 16:37:20;;;;;;;7.00;2.80;;;33.20;68.90;;;;;;5045859;28;20122;-84
2022/07/18 16:39:46;;;;;;;9.05;2.97;;;33.50;68.70;;;;;;5031147;28;20039;-84
2022/07/18 16:42:12;;;;;;;8.02;2.80;;;32.90;68.70;;;;;;5062784;28;20102;-84
2022/07/18 16:44:39;;;;;;;7.20;2.72;;;32.70;69.00;;;;;;5042690;28;20117;-84
2022/07/18 16:47:07;;;;;;;9.05;2.60;;;32.10;69.50;;;;;;5031562;28;20067;-83
2022/07/18 16:49:33;;;;;;;7.68;2.88;;;32.50;70.20;;;;;;5047065;28;20037;-83
2022/07/18 16:52:00;;;;;;;6.80;2.50;;;32.40;69.00;;;;;;5060334;28;20115;-86
2022/07/18 16:54:26;;;;;;;8.02;2.47;;;32.30;69.40;;;;;;5062956;28;20020;-83
2022/07/18 16:56:52;;;;;;;9.98;2.78;;;32.20;69.70;;;;;;5044332;28;20055;-84
2022/07/18 16:59:19;;;;;;;7.40;2.70;;;32.10;69.80;;;;;;5046111;28;20031;-84
2022/07/18 17:01:45;;;;;;;6.80;2.60;;;32.00;69.80;;;;;;5046877;28;20083;-83
2022/07/18 17:04:12;;;;;;;8.23;2.60;;;31.90;69.70;;;;;;5031712;28;20033;-83
2022/07/18 17:06:38;;;;;;;7.65;2.67;;;31.80;70.10;;;;;;5047060;28;20285;-83
2022/07/18 17:09:04;;;;;;;7.78;2.85;;;31.70;69.70;;;;;;5047169;28;20032;-84
2022/07/18 17:11:30;;;;;;;6.85;2.45;;;31.60;68.70;;;;;;5046343;28;20276;-83
2022/07/18 17:13:57;;;;;;;5.68;2.33;;;31.50;69.10;;;;;;5081256;28;20090;-83
2022/07/18 17:16:23;;;;;;;6.85;2.67;;;31.40;69.50;;;;;;5046045;28;20025;-83
2022/07/18 17:18:49;;;;;;;8.07;2.60;;;31.30;69.70;;;;;;5047138;28;20256;-83
2022/07/18 17:21:17;;;;;;;8.70;2.97;;;31.20;67.70;;;;;;5045501;28;20058;-83
2022/07/18 17:23:45;;;;;;;8.63;3.08;;;31.00;70.80;;;;;;5044073;28;20028;-84
2022/07/18 17:26:11;;;;;;;8.18;3.00;;;30.70;73.10;;;;;;5045887;28;20069;-83
2022/07/18 17:28:37;;;;;;;7.93;2.95;;;30.30;75.60;;;;;;5063412;28;20028;-85
2022/07/18 17:31:03;;;;;;;8.75;3.10;;;30.30;76.20;;;;;;5028170;28;20047;-85
2022/07/18 17:33:30;;;;;;;8.20;3.25;;;30.50;77.00;;;;;;5030651;28;20029;-84
2022/07/18 17:35:58;;;;;;;9.35;2.90;;;30.40;77.10;;;;;;5029888;28;20072;-83
2022/07/18 17:38:25;;;;;;;9.82;3.33;;;30.30;77.70;;;;;;5044633;28;20167;-83
2022/07/18 17:40:51;;;;;;;8.95;3.17;;;30.10;77.80;;;;;;5029939;28;20063;-84
2022/07/18 17:43:18;;;;;;;8.63;3.40;;;30.00;78.80;;;;;;5046466;28;20270;-83
2022/07/18 17:45:44;;;;;;;8.18;3.10;;;30.00;80.20;;;;;;5043742;28;20259;-83
2022/07/18 17:48:11;;;;;;;8.80;3.10;;;29.80;81.20;;;;;;5042369;28;20043;-83
2022/07/18 17:50:37;;;;;;;9.38;3.22;;;29.70;81.70;;;;;;5058881;28;20055;-82
2022/07/18 17:53:04;;;;;;;8.85;3.20;;;29.60;82.40;;;;;;5061233;28;20024;-83
2022/07/18 17:55:30;;;;;;;10.27;3.17;;;29.50;83.30;;;;;;5046178;28;20025;-83
2022/07/18 17:57:56;;;;;;;9.23;3.55;;;29.50;84.20;;;;;;5044842;28;20028;-83
2022/07/18 18:00:22;;;;;;;8.90;3.33;;;29.40;84.50;;;;;;5045148;28;20103;-83
2022/07/18 18:02:48;;;;;;;10.00;3.63;;;29.40;84.50;;;;;;5029866;28;20095;-82
2022/07/18 18:05:14;;;;;;;9.55;3.67;;;29.50;84.90;;;;;;5027687;28;20085;-84